createdAt,value
2016-07-19T00:00:36.654Z,22.94
2016-07-19T00:01:36.677Z,22.96
2016-07-19T00:02:36.676Z,22.96
2016-07-19T00:03:36.703Z,22.91
2016-07-19T00:04:36.702Z,22.86
2016-07-19T00:05:36.731Z,22.94
2016-07-19T00:06:36.725Z,22.96
2016-07-19T00:07:36.742Z,22.94
2016-07-19T00:08:36.739Z,22.96
2016-07-19T00:09:36.736Z,22.92
2016-07-19T00:10:36.770Z,22.91
2016-07-19T00:11:36.765Z,22.92
2016-07-19T00:12:36.769Z,22.91
2016-07-19T00:13:36.774Z,22.96
2016-07-19T00:14:36.802Z,22.88
2016-07-19T00:15:36.791Z,22.97
2016-07-19T00:16:36.804Z,22.94
2016-07-19T00:17:36.810Z,22.89
2016-07-19T00:18:36.817Z,22.88
2016-07-19T00:19:36.830Z,22.91
2016-07-19T00:20:36.850Z,22.92
2016-07-19T00:21:36.854Z,22.91
2016-07-19T00:22:36.858Z,22.92
2016-07-19T00:23:36.851Z,22.88
2016-07-19T00:24:36.885Z,22.89
2016-07-19T00:25:36.883Z,22.96
2016-07-19T00:26:36.869Z,22.92
2016-07-19T00:27:36.895Z,22.91
2016-07-19T00:28:36.920Z,22.94
2016-07-19T00:29:36.924Z,22.86
2016-07-19T00:30:36.922Z,22.89
2016-07-19T00:31:36.935Z,22.89
2016-07-19T00:32:36.921Z,22.89
2016-07-19T00:33:36.956Z,22.91
2016-07-19T00:34:36.968Z,22.92
2016-07-19T00:35:36.986Z,22.88
2016-07-19T00:36:36.977Z,22.88
2016-07-19T00:37:36.983Z,22.91
2016-07-19T00:38:36.975Z,22.92
2016-07-19T00:39:36.996Z,22.91
2016-07-19T00:40:36.991Z,22.91
2016-07-19T00:41:37.004Z,22.91
2016-07-19T00:42:37.006Z,22.92
2016-07-19T00:43:37.045Z,22.89
2016-07-19T00:44:37.033Z,22.88
2016-07-19T00:45:37.042Z,22.96
2016-07-19T00:46:37.038Z,22.92
2016-07-19T00:47:37.081Z,22.91
2016-07-19T00:48:37.078Z,22.91
2016-07-19T00:49:37.094Z,22.92
2016-07-19T00:50:37.096Z,22.89
2016-07-19T00:51:37.085Z,22.92
2016-07-19T00:52:37.101Z,22.92
2016-07-19T00:53:37.113Z,22.89
2016-07-19T00:54:37.120Z,22.85
2016-07-19T00:55:37.154Z,22.89
2016-07-19T00:56:37.143Z,22.94
2016-07-19T00:57:37.136Z,22.88
2016-07-19T00:58:37.140Z,22.86
2016-07-19T00:59:37.158Z,22.91
2016-07-19T01:00:37.171Z,22.79
2016-07-19T01:01:37.181Z,22.79
2016-07-19T01:02:37.185Z,22.84
2016-07-19T01:03:37.204Z,22.92
2016-07-19T01:04:37.226Z,22.84
2016-07-19T01:05:37.233Z,22.82
2016-07-19T01:06:37.212Z,22.81
2016-07-19T01:07:37.220Z,22.81
2016-07-19T01:08:37.250Z,22.82
2016-07-19T01:09:37.304Z,22.84
2016-07-19T01:10:37.240Z,22.85
2016-07-19T01:11:37.282Z,22.82
2016-07-19T01:12:37.274Z,22.82
2016-07-19T01:13:37.281Z,22.84
2016-07-19T01:14:37.297Z,22.82
2016-07-19T01:15:37.305Z,22.82
2016-07-19T01:16:37.328Z,22.84
2016-07-19T01:17:37.312Z,22.85
2016-07-19T01:18:37.328Z,22.85
2016-07-19T01:19:37.332Z,22.86
2016-07-19T01:20:37.349Z,22.84
2016-07-19T01:21:37.337Z,22.78
2016-07-19T01:22:37.347Z,22.82
2016-07-19T01:23:37.353Z,22.84
2016-07-19T01:24:37.376Z,22.85
2016-07-19T01:25:37.377Z,22.82
2016-07-19T01:26:37.379Z,22.85
2016-07-19T01:27:37.394Z,22.86
2016-07-19T01:28:37.413Z,22.82
2016-07-19T01:29:37.418Z,22.85
2016-07-19T01:30:37.423Z,22.79
2016-07-19T01:31:37.434Z,22.75
2016-07-19T01:32:37.460Z,22.86
2016-07-19T01:33:37.475Z,22.82
2016-07-19T01:34:37.457Z,22.76
2016-07-19T01:35:37.480Z,22.84
2016-07-19T01:36:37.473Z,22.7
2016-07-19T01:37:37.487Z,22.71
2016-07-19T01:38:37.483Z,22.73
2016-07-19T01:39:37.499Z,22.7
2016-07-19T01:40:37.518Z,22.73
2016-07-19T01:41:37.499Z,22.69
2016-07-19T01:42:37.514Z,22.82
2016-07-19T01:43:37.526Z,22.81
2016-07-19T01:44:37.554Z,22.69
2016-07-19T01:45:37.563Z,22.66
2016-07-19T01:46:37.554Z,22.66
2016-07-19T01:47:37.557Z,22.82
2016-07-19T01:48:37.574Z,22.75
2016-07-19T01:49:37.582Z,22.66
2016-07-19T01:50:37.575Z,22.66
2016-07-19T01:51:37.593Z,22.73
2016-07-19T01:52:37.609Z,22.79
2016-07-19T01:53:37.602Z,22.66
2016-07-19T01:54:37.615Z,22.81
2016-07-19T01:55:37.621Z,22.71
2016-07-19T01:56:37.633Z,22.67
2016-07-19T01:57:37.646Z,22.76
2016-07-19T01:58:37.668Z,22.78
2016-07-19T01:59:37.652Z,22.76
2016-07-19T02:00:37.666Z,22.7
2016-07-19T02:01:37.660Z,22.7
2016-07-19T02:02:37.695Z,22.73
2016-07-19T02:03:37.707Z,22.67
2016-07-19T02:04:37.710Z,22.75
2016-07-19T02:05:37.725Z,22.67
2016-07-19T02:06:37.733Z,22.71
2016-07-19T02:07:37.771Z,22.67
2016-07-19T02:08:37.733Z,22.7
2016-07-19T02:09:37.748Z,22.7
2016-07-19T02:10:37.765Z,22.69
2016-07-19T02:11:37.745Z,22.75
2016-07-19T02:12:37.774Z,22.79
2016-07-19T02:13:37.766Z,22.75
2016-07-19T02:14:37.802Z,22.75
2016-07-19T02:15:37.791Z,22.76
2016-07-19T02:16:37.809Z,22.75
2016-07-19T02:17:37.805Z,22.73
2016-07-19T02:18:37.791Z,22.71
2016-07-19T02:19:37.823Z,22.75
2016-07-19T02:20:37.831Z,22.69
2016-07-19T02:21:37.822Z,22.75
2016-07-19T02:22:37.848Z,22.71
2016-07-19T02:23:37.870Z,22.67
2016-07-19T02:24:37.853Z,22.73
2016-07-19T02:25:37.878Z,22.73
2016-07-19T02:26:37.875Z,22.73
2016-07-19T02:27:37.872Z,22.76
2016-07-19T02:28:37.915Z,22.75
2016-07-19T02:29:37.890Z,22.71
2016-07-19T02:30:37.941Z,22.7
2016-07-19T02:31:37.920Z,22.64
2016-07-19T02:32:37.943Z,22.73
2016-07-19T02:33:37.957Z,22.7
2016-07-19T02:34:37.981Z,22.73
2016-07-19T02:35:37.947Z,22.57
2016-07-19T02:36:37.979Z,22.7
2016-07-19T02:37:37.971Z,22.67
2016-07-19T02:38:37.982Z,22.7
2016-07-19T02:39:37.983Z,22.55
2016-07-19T02:40:38.003Z,22.67
2016-07-19T02:41:38.017Z,22.6
2016-07-19T02:42:38.026Z,22.55
2016-07-19T02:43:38.026Z,22.73
2016-07-19T02:44:38.031Z,22.63
2016-07-19T02:45:38.054Z,22.71
2016-07-19T02:46:38.039Z,22.59
2016-07-19T02:47:38.081Z,22.63
2016-07-19T02:48:38.052Z,22.6
2016-07-19T02:49:38.069Z,22.71
2016-07-19T02:50:38.092Z,22.54
2016-07-19T02:51:38.091Z,22.61
2016-07-19T02:52:38.117Z,22.57
2016-07-19T02:53:38.110Z,22.6
2016-07-19T02:54:38.120Z,22.61
2016-07-19T02:55:38.115Z,22.61
2016-07-19T02:56:38.130Z,22.57
2016-07-19T02:57:38.149Z,22.69
2016-07-19T02:58:38.153Z,22.59
2016-07-19T02:59:38.146Z,22.57
2016-07-19T03:00:38.146Z,22.61
2016-07-19T03:01:38.162Z,22.59
2016-07-19T03:02:38.188Z,22.6
2016-07-19T03:03:38.188Z,22.54
2016-07-19T03:04:38.191Z,22.6
2016-07-19T03:05:38.199Z,22.59
2016-07-19T03:06:38.209Z,22.63
2016-07-19T03:07:38.417Z,22.59
2016-07-19T03:08:38.203Z,22.57
2016-07-19T03:09:38.237Z,22.57
2016-07-19T03:10:38.257Z,22.63
2016-07-19T03:11:38.240Z,22.59
2016-07-19T03:12:38.261Z,22.61
2016-07-19T03:13:38.240Z,22.6
2016-07-19T03:14:38.272Z,22.64
2016-07-19T03:15:38.993Z,22.59
2016-07-19T03:16:38.298Z,22.61
2016-07-19T03:17:38.299Z,22.61
2016-07-19T03:18:38.302Z,22.61
2016-07-19T03:19:38.319Z,22.52
2016-07-19T03:20:38.326Z,22.61
2016-07-19T03:21:38.332Z,22.63
2016-07-19T03:22:38.368Z,22.61
2016-07-19T03:23:38.357Z,22.59
2016-07-19T03:24:38.354Z,22.57
2016-07-19T03:25:38.364Z,22.63
2016-07-19T03:26:38.376Z,22.59
2016-07-19T03:27:38.380Z,22.6
2016-07-19T03:28:38.390Z,22.6
2016-07-19T03:29:38.386Z,22.54
2016-07-19T03:30:38.406Z,22.6
2016-07-19T03:31:38.399Z,22.55
2016-07-19T03:32:38.422Z,22.59
2016-07-19T03:33:38.435Z,22.54
2016-07-19T03:34:38.425Z,22.6
2016-07-19T03:35:38.451Z,22.59
2016-07-19T03:36:38.459Z,22.61
2016-07-19T03:37:38.460Z,22.63
2016-07-19T03:38:38.479Z,22.63
2016-07-19T03:39:38.467Z,22.6
2016-07-19T03:40:38.499Z,22.61
2016-07-19T03:41:38.491Z,22.63
2016-07-19T03:42:38.493Z,22.63
2016-07-19T03:43:38.513Z,22.61
2016-07-19T03:44:38.522Z,22.6
2016-07-19T03:45:38.529Z,22.57
2016-07-19T03:46:38.531Z,22.63
2016-07-19T03:47:38.562Z,22.55
2016-07-19T03:48:38.536Z,22.63
2016-07-19T03:49:38.550Z,22.64
2016-07-19T03:50:38.556Z,22.57
2016-07-19T03:51:38.582Z,22.61
2016-07-19T03:52:38.603Z,22.59
2016-07-19T03:53:38.611Z,22.55
2016-07-19T03:54:38.641Z,22.61
2016-07-19T03:55:38.611Z,22.57
2016-07-19T03:56:38.607Z,22.59
2016-07-19T03:57:38.609Z,22.54
2016-07-19T03:58:39.347Z,22.55
2016-07-19T03:59:38.669Z,22.54
2016-07-19T04:00:38.632Z,22.57
2016-07-19T04:01:38.653Z,22.6
2016-07-19T04:02:38.668Z,22.61
2016-07-19T04:03:38.683Z,22.55
2016-07-19T04:04:38.681Z,22.6
2016-07-19T04:05:38.683Z,22.64
2016-07-19T04:06:38.700Z,22.59
2016-07-19T04:07:38.700Z,22.6
2016-07-19T04:08:38.721Z,22.54
2016-07-19T04:09:38.718Z,22.57
2016-07-19T04:10:38.733Z,22.6
2016-07-19T04:11:38.739Z,22.59
2016-07-19T04:12:38.749Z,22.59
2016-07-19T04:13:38.738Z,22.6
2016-07-19T04:14:38.768Z,22.61
2016-07-19T04:15:38.779Z,22.61
2016-07-19T04:16:38.771Z,22.61
2016-07-19T04:17:38.777Z,22.6
2016-07-19T04:18:38.813Z,22.57
2016-07-19T04:19:38.807Z,22.57
2016-07-19T04:20:38.805Z,22.59
2016-07-19T04:21:38.817Z,22.59
2016-07-19T04:22:38.806Z,22.63
2016-07-19T04:23:38.846Z,22.59
2016-07-19T04:24:38.864Z,22.63
2016-07-19T04:25:38.852Z,22.59
2016-07-19T04:26:38.865Z,22.6
2016-07-19T04:27:38.871Z,22.6
2016-07-19T04:28:38.873Z,22.55
2016-07-19T04:29:38.903Z,22.6
2016-07-19T04:30:38.882Z,22.57
2016-07-19T04:31:38.902Z,22.57
2016-07-19T04:32:38.912Z,22.61
2016-07-19T04:33:38.927Z,22.71
2016-07-19T04:34:38.925Z,22.69
2016-07-19T04:35:38.947Z,22.71
2016-07-19T04:36:38.928Z,22.64
2016-07-19T04:37:38.935Z,22.69
2016-07-19T04:38:38.971Z,22.64
2016-07-19T04:39:38.947Z,22.69
2016-07-19T04:40:38.991Z,22.55
2016-07-19T04:41:39.001Z,22.64
2016-07-19T04:42:39.007Z,22.67
2016-07-19T04:43:38.994Z,22.67
2016-07-19T04:44:39.000Z,22.67
2016-07-19T04:45:39.012Z,22.64
2016-07-19T04:46:39.022Z,22.69
2016-07-19T04:47:39.047Z,22.7
2016-07-19T04:48:39.021Z,22.64
2016-07-19T04:49:39.060Z,22.71
2016-07-19T04:50:39.043Z,22.69
2016-07-19T04:51:39.083Z,22.67
2016-07-19T04:52:39.067Z,22.7
2016-07-19T04:53:39.076Z,22.69
2016-07-19T04:54:39.106Z,22.73
2016-07-19T04:55:39.088Z,22.7
2016-07-19T04:56:39.120Z,22.7
2016-07-19T04:57:39.127Z,22.76
2016-07-19T04:58:39.122Z,22.67
2016-07-19T04:59:39.825Z,22.71
2016-07-19T05:00:39.138Z,22.73
2016-07-19T05:01:39.139Z,22.73
2016-07-19T05:02:39.163Z,22.69
2016-07-19T05:03:39.159Z,22.75
2016-07-19T05:04:39.170Z,22.7
2016-07-19T05:05:39.188Z,22.69
2016-07-19T05:06:39.182Z,22.73
2016-07-19T05:07:39.261Z,22.69
2016-07-19T05:08:39.215Z,22.71
2016-07-19T05:09:39.216Z,22.73
2016-07-19T05:10:39.231Z,22.73
2016-07-19T05:11:39.217Z,22.67
2016-07-19T05:12:39.223Z,22.7
2016-07-19T05:13:39.228Z,22.71
2016-07-19T05:14:39.266Z,22.7
2016-07-19T05:15:39.255Z,22.73
2016-07-19T05:16:39.251Z,22.67
2016-07-19T05:17:39.289Z,22.67
2016-07-19T05:18:39.259Z,22.69
2016-07-19T05:19:39.283Z,22.75
2016-07-19T05:20:39.296Z,22.69
2016-07-19T05:21:39.324Z,22.75
2016-07-19T05:22:39.315Z,22.73
2016-07-19T05:23:39.303Z,22.71
2016-07-19T05:24:39.319Z,22.76
2016-07-19T05:25:39.350Z,22.71
2016-07-19T05:26:39.350Z,22.78
2016-07-19T05:27:39.352Z,22.75
2016-07-19T05:28:39.373Z,22.67
2016-07-19T05:29:39.374Z,22.66
2016-07-19T05:30:39.374Z,22.69
2016-07-19T05:31:39.398Z,22.66
2016-07-19T05:32:39.380Z,22.7
2016-07-19T05:33:39.418Z,22.69
2016-07-19T05:34:39.431Z,22.75
2016-07-19T05:35:39.412Z,22.73
2016-07-19T05:36:39.467Z,22.75
2016-07-19T05:37:40.156Z,22.71
2016-07-19T05:38:39.454Z,22.78
2016-07-19T05:39:39.462Z,22.81
2016-07-19T05:40:39.482Z,22.75
2016-07-19T05:41:40.154Z,22.73
2016-07-19T05:42:39.505Z,22.75
2016-07-19T05:43:39.478Z,22.73
2016-07-19T05:44:39.485Z,22.75
2016-07-19T05:45:39.531Z,22.82
2016-07-19T05:46:39.522Z,22.78
2016-07-19T05:47:39.542Z,22.79
2016-07-19T05:48:39.522Z,22.78
2016-07-19T05:49:39.548Z,22.82
2016-07-19T05:50:39.552Z,22.81
2016-07-19T05:51:39.561Z,22.84
2016-07-19T05:52:39.567Z,22.78
2016-07-19T05:53:39.573Z,22.81
2016-07-19T05:55:39.591Z,22.86
2016-07-19T05:56:39.597Z,22.81
2016-07-19T05:57:39.591Z,22.85
2016-07-19T05:58:39.609Z,22.86
2016-07-19T05:59:39.631Z,22.82
2016-07-19T06:00:39.636Z,22.88
2016-07-19T06:01:39.656Z,22.79
2016-07-19T06:02:39.665Z,22.82
2016-07-19T06:03:39.661Z,22.85
2016-07-19T06:04:39.669Z,22.81
2016-07-19T06:05:39.673Z,22.81
2016-07-19T06:06:39.672Z,22.86
2016-07-19T06:07:39.703Z,22.81
2016-07-19T06:08:39.688Z,22.84
2016-07-19T06:09:39.703Z,22.85
2016-07-19T06:10:39.704Z,22.76
2016-07-19T06:11:39.710Z,22.82
2016-07-19T06:12:39.711Z,22.85
2016-07-19T06:13:39.725Z,22.82
2016-07-19T06:14:39.768Z,22.81
2016-07-19T06:15:39.797Z,22.82
2016-07-19T06:16:39.777Z,22.79
2016-07-19T06:17:39.792Z,22.91
2016-07-19T06:18:39.788Z,22.84
2016-07-19T06:19:39.818Z,22.88
2016-07-19T06:20:39.815Z,22.88
2016-07-19T06:21:39.828Z,22.79
2016-07-19T06:22:39.818Z,22.82
2016-07-19T06:23:39.857Z,22.91
2016-07-19T06:24:39.847Z,22.92
2016-07-19T06:25:39.837Z,22.96
2016-07-19T06:26:39.885Z,22.89
2016-07-19T06:27:39.877Z,22.81
2016-07-19T06:28:39.901Z,22.82
2016-07-19T06:29:39.912Z,22.82
2016-07-19T06:30:39.893Z,22.85
2016-07-19T06:31:39.888Z,22.82
2016-07-19T06:32:39.923Z,22.82
2016-07-19T06:33:39.920Z,22.81
2016-07-19T06:34:39.949Z,22.86
2016-07-19T06:35:39.938Z,22.82
2016-07-19T06:36:39.931Z,22.85
2016-07-19T06:37:39.920Z,22.84
2016-07-19T06:38:39.960Z,22.82
2016-07-19T06:39:39.959Z,22.84
2016-07-19T06:40:39.976Z,22.88
2016-07-19T06:41:39.968Z,22.81
2016-07-19T06:42:39.997Z,22.81
2016-07-19T06:43:40.002Z,22.82
2016-07-19T06:44:40.015Z,22.84
2016-07-19T06:45:40.008Z,22.82
2016-07-19T06:46:40.003Z,22.82
2016-07-19T06:47:40.057Z,22.85
2016-07-19T06:48:40.041Z,22.79
2016-07-19T06:49:40.041Z,22.82
2016-07-19T06:50:40.081Z,22.81
2016-07-19T06:51:40.050Z,22.82
2016-07-19T06:52:40.088Z,22.96
2016-07-19T06:53:40.088Z,22.92
2016-07-19T06:54:40.092Z,22.91
2016-07-19T06:55:40.085Z,22.89
2016-07-19T06:56:40.111Z,22.94
2016-07-19T06:57:40.088Z,22.92
2016-07-19T06:58:40.133Z,22.92
2016-07-19T06:59:40.107Z,22.94
2016-07-19T07:00:40.127Z,22.88
2016-07-19T07:01:40.148Z,22.92
2016-07-19T07:02:40.144Z,22.94
2016-07-19T07:03:40.173Z,23.03
2016-07-19T07:04:40.176Z,22.91
2016-07-19T07:05:40.195Z,23
2016-07-19T07:06:40.198Z,22.96
2016-07-19T07:07:40.229Z,22.94
2016-07-19T07:08:40.224Z,22.99
2016-07-19T07:09:40.200Z,22.99
2016-07-19T07:10:40.260Z,22.94
2016-07-19T07:11:40.248Z,22.99
2016-07-19T07:12:40.232Z,23.06
2016-07-19T07:13:40.256Z,23.03
2016-07-19T07:14:40.240Z,22.99
2016-07-19T07:15:40.271Z,23.01
2016-07-19T07:16:40.279Z,23.03
2016-07-19T07:17:40.255Z,23
2016-07-19T07:18:40.282Z,23.01
2016-07-19T07:19:40.327Z,23.01
2016-07-19T07:20:40.308Z,23.09
2016-07-19T07:21:40.310Z,23
2016-07-19T07:22:40.308Z,23.04
2016-07-19T07:23:40.357Z,23.01
2016-07-19T07:24:40.337Z,22.99
2016-07-19T07:25:40.361Z,23.04
2016-07-19T07:26:40.366Z,23.04
2016-07-19T07:27:40.387Z,23.06
2016-07-19T07:28:40.352Z,23.06
2016-07-19T07:29:40.375Z,23.1
2016-07-19T07:30:40.407Z,23.07
2016-07-19T07:31:40.412Z,23.03
2016-07-19T07:32:40.431Z,22.97
2016-07-19T07:33:40.388Z,23.06
2016-07-19T07:34:40.399Z,23.01
2016-07-19T07:35:40.427Z,23.09
2016-07-19T07:36:40.416Z,23
2016-07-19T07:37:40.470Z,23
2016-07-19T07:38:40.440Z,23
2016-07-19T07:39:40.439Z,22.97
2016-07-19T07:40:40.479Z,23
2016-07-19T07:41:40.488Z,23.01
2016-07-19T07:42:40.509Z,23.09
2016-07-19T07:43:40.512Z,23.12
2016-07-19T07:44:40.534Z,23.14
2016-07-19T07:45:40.503Z,23.14
2016-07-19T07:46:40.528Z,23.1
2016-07-19T07:47:40.532Z,23.1
2016-07-19T07:48:40.543Z,23.1
2016-07-19T07:49:41.221Z,23.16
2016-07-19T07:50:40.579Z,23.09
2016-07-19T07:51:40.566Z,23.21
2016-07-19T07:52:40.565Z,23.14
2016-07-19T07:53:40.563Z,23.16
2016-07-19T07:54:40.570Z,23.18
2016-07-19T07:55:40.603Z,23.19
2016-07-19T07:56:40.612Z,23.15
2016-07-19T07:57:40.609Z,23.16
2016-07-19T07:58:40.627Z,23.22
2016-07-19T07:59:40.635Z,23.15
2016-07-19T08:00:40.645Z,23.14
2016-07-19T08:01:40.662Z,23.15
2016-07-19T08:02:40.664Z,23.15
2016-07-19T08:03:40.635Z,23.22
2016-07-19T08:04:40.655Z,23.21
2016-07-19T08:05:40.685Z,23.26
2016-07-19T08:06:40.714Z,23.12
2016-07-19T08:07:40.700Z,23.24
2016-07-19T08:08:40.725Z,23.29
2016-07-19T08:09:40.688Z,23.26
2016-07-19T08:10:40.725Z,23.32
2016-07-19T08:11:40.723Z,23.29
2016-07-19T08:12:40.751Z,23.24
2016-07-19T08:13:40.711Z,23.28
2016-07-19T08:14:40.748Z,23.35
2016-07-19T08:15:40.761Z,23.37
2016-07-19T08:16:40.767Z,23.32
2016-07-19T08:17:40.806Z,23.29
2016-07-19T08:18:40.799Z,23.24
2016-07-19T08:19:40.812Z,23.37
2016-07-19T08:20:40.815Z,23.37
2016-07-19T08:21:40.787Z,23.35
2016-07-19T08:22:40.817Z,23.38
2016-07-19T08:23:40.856Z,23.35
2016-07-19T08:24:40.835Z,23.4
2016-07-19T08:25:40.872Z,23.35
2016-07-19T08:26:40.861Z,23.37
2016-07-19T08:27:40.875Z,23.41
2016-07-19T08:28:40.884Z,23.41
2016-07-19T08:29:40.851Z,23.4
2016-07-19T08:30:40.923Z,23.4
2016-07-19T08:31:40.891Z,23.41
2016-07-19T08:32:40.927Z,23.4
2016-07-19T08:33:40.940Z,23.4
2016-07-19T08:34:40.955Z,23.38
2016-07-19T08:35:40.961Z,23.52
2016-07-19T08:36:40.920Z,23.53
2016-07-19T08:37:40.928Z,23.5
2016-07-19T08:38:40.966Z,23.52
2016-07-19T08:39:40.967Z,23.5
2016-07-19T08:40:40.979Z,23.48
2016-07-19T08:41:40.994Z,23.47
2016-07-19T08:42:40.974Z,23.55
2016-07-19T08:43:41.021Z,23.53
2016-07-19T08:44:41.011Z,23.56
2016-07-19T08:45:41.016Z,23.55
2016-07-19T08:46:41.014Z,23.59
2016-07-19T08:47:41.065Z,23.55
2016-07-19T08:48:41.040Z,23.64
2016-07-19T08:49:41.066Z,23.59
2016-07-19T08:50:41.068Z,23.62
2016-07-19T08:51:41.072Z,23.66
2016-07-19T08:52:41.057Z,23.64
2016-07-19T08:53:41.108Z,23.55
2016-07-19T08:54:41.094Z,23.64
2016-07-19T08:55:41.139Z,23.59
2016-07-19T08:56:41.133Z,23.66
2016-07-19T08:57:41.143Z,23.66
2016-07-19T08:58:41.181Z,23.6
2016-07-19T08:59:41.129Z,23.67
2016-07-19T09:00:41.169Z,23.7
2016-07-19T09:01:41.204Z,23.71
2016-07-19T09:02:41.183Z,23.74
2016-07-19T09:03:41.211Z,23.75
2016-07-19T09:04:41.207Z,23.74
2016-07-19T09:05:41.215Z,23.77
2016-07-19T09:06:41.215Z,23.77
2016-07-19T09:07:41.241Z,23.78
2016-07-19T09:08:41.240Z,23.75
2016-07-19T09:09:41.228Z,23.74
2016-07-19T09:10:41.249Z,23.82
2016-07-19T09:11:41.275Z,23.89
2016-07-19T09:12:41.276Z,23.75
2016-07-19T09:13:41.288Z,23.84
2016-07-19T09:14:41.275Z,23.9
2016-07-19T09:15:41.274Z,23.92
2016-07-19T09:16:41.301Z,23.87
2016-07-19T09:17:41.286Z,23.84
2016-07-19T09:18:41.323Z,23.9
2016-07-19T09:19:41.323Z,23.92
2016-07-19T09:20:41.335Z,23.92
2016-07-19T09:21:41.341Z,23.96
2016-07-19T09:22:41.381Z,23.94
2016-07-19T09:23:41.334Z,23.97
2016-07-19T09:24:41.370Z,23.94
2016-07-19T09:25:41.381Z,23.93
2016-07-19T09:26:41.407Z,23.9
2016-07-19T09:27:41.389Z,23.94
2016-07-19T09:28:41.432Z,23.97
2016-07-19T09:29:41.403Z,23.89
2016-07-19T09:30:41.427Z,24.02
2016-07-19T09:31:41.402Z,24.02
2016-07-19T09:32:41.436Z,24.04
2016-07-19T09:33:42.164Z,24.07
2016-07-19T09:34:41.454Z,23.99
2016-07-19T09:35:41.471Z,24.02
2016-07-19T09:36:42.151Z,24.03
2016-07-19T09:37:41.511Z,24.08
2016-07-19T09:38:41.498Z,24.08
2016-07-19T09:39:41.487Z,24.12
2016-07-19T09:40:41.558Z,24.22
2016-07-19T09:41:41.534Z,24.26
2016-07-19T09:42:41.536Z,24.24
2016-07-19T09:43:41.535Z,24.15
2016-07-19T09:44:41.560Z,24.19
2016-07-19T09:45:41.546Z,24.14
2016-07-19T09:46:41.580Z,24.21
2016-07-19T09:47:41.574Z,24.27
2016-07-19T09:48:41.589Z,24.24
2016-07-19T09:49:41.582Z,24.24
2016-07-19T09:50:41.578Z,24.29
2016-07-19T09:51:41.607Z,24.27
2016-07-19T09:52:41.633Z,24.22
2016-07-19T09:53:41.648Z,24.22
2016-07-19T09:54:41.664Z,24.3
2016-07-19T09:55:41.638Z,24.29
2016-07-19T09:56:41.675Z,24.22
2016-07-19T09:57:41.667Z,24.27
2016-07-19T09:58:41.675Z,24.3
2016-07-19T09:59:41.685Z,24.3
2016-07-19T10:00:41.683Z,24.29
2016-07-19T10:01:41.718Z,24.27
2016-07-19T10:02:41.689Z,24.3
2016-07-19T10:03:41.719Z,24.27
2016-07-19T10:04:41.712Z,24.3
2016-07-19T10:05:41.723Z,24.27
2016-07-19T10:06:41.738Z,24.34
2016-07-19T10:07:41.745Z,24.3
2016-07-19T10:08:41.766Z,24.34
2016-07-19T10:09:41.770Z,24.39
2016-07-19T10:10:41.777Z,24.39
2016-07-19T10:11:41.777Z,24.33
2016-07-19T10:12:41.785Z,24.37
2016-07-19T10:13:41.805Z,24.4
2016-07-19T10:14:41.836Z,24.39
2016-07-19T10:15:41.822Z,24.34
2016-07-19T10:16:41.823Z,24.45
2016-07-19T10:17:41.839Z,24.42
2016-07-19T10:18:41.847Z,24.44
2016-07-19T10:19:41.851Z,24.42
2016-07-19T10:20:41.890Z,24.45
2016-07-19T10:21:41.847Z,24.46
2016-07-19T10:22:41.873Z,24.49
2016-07-19T10:23:41.860Z,24.48
2016-07-19T10:24:41.908Z,24.54
2016-07-19T10:25:41.894Z,24.48
2016-07-19T10:26:41.943Z,24.51
2016-07-19T10:27:41.930Z,24.56
2016-07-19T10:28:41.902Z,24.52
2016-07-19T10:29:41.937Z,24.58
2016-07-19T10:30:41.970Z,24.52
2016-07-19T10:31:41.973Z,24.58
2016-07-19T10:32:41.992Z,24.59
2016-07-19T10:33:41.976Z,24.61
2016-07-19T10:34:41.985Z,24.51
2016-07-19T10:35:41.978Z,24.59
2016-07-19T10:36:42.027Z,24.59
2016-07-19T10:37:42.012Z,24.55
2016-07-19T10:38:42.051Z,24.59
2016-07-19T10:39:42.025Z,24.63
2016-07-19T10:40:42.033Z,24.59
2016-07-19T10:41:42.060Z,24.67
2016-07-19T10:42:42.070Z,24.71
2016-07-19T10:43:42.085Z,24.66
2016-07-19T10:44:42.072Z,24.71
2016-07-19T10:45:42.072Z,24.71
2016-07-19T10:46:42.083Z,24.7
2016-07-19T10:47:42.093Z,24.71
2016-07-19T10:48:42.107Z,24.71
2016-07-19T10:49:42.127Z,24.75
2016-07-19T10:50:42.141Z,24.74
2016-07-19T10:51:42.121Z,24.77
2016-07-19T10:52:42.131Z,24.71
2016-07-19T10:53:42.157Z,24.69
2016-07-19T10:54:42.144Z,24.77
2016-07-19T10:55:42.167Z,24.78
2016-07-19T10:56:42.180Z,24.75
2016-07-19T10:57:42.241Z,24.75
2016-07-19T10:58:42.186Z,24.74
2016-07-19T10:59:42.192Z,24.85
2016-07-19T11:00:42.209Z,24.77
2016-07-19T11:01:42.204Z,24.82
2016-07-19T11:02:42.242Z,24.86
2016-07-19T11:03:42.243Z,24.69
2016-07-19T11:04:42.254Z,24.83
2016-07-19T11:05:42.273Z,24.83
2016-07-19T11:06:42.972Z,24.89
2016-07-19T11:07:42.289Z,24.82
2016-07-19T11:08:42.269Z,24.78
2016-07-19T11:09:42.273Z,24.78
2016-07-19T11:10:42.303Z,24.9
2016-07-19T11:11:42.328Z,24.82
2016-07-19T11:12:42.334Z,24.87
2016-07-19T11:13:42.322Z,24.96
2016-07-19T11:14:42.355Z,24.89
2016-07-19T11:15:42.349Z,24.9
2016-07-19T11:16:42.371Z,24.92
2016-07-19T11:17:42.346Z,24.96
2016-07-19T11:18:42.391Z,25
2016-07-19T11:19:42.421Z,24.92
2016-07-19T11:20:42.393Z,24.92
2016-07-19T11:21:42.427Z,24.92
2016-07-19T11:22:42.426Z,24.96
2016-07-19T11:23:42.417Z,25
2016-07-19T11:24:42.425Z,24.93
2016-07-19T11:25:42.415Z,25.04
2016-07-19T11:26:42.464Z,25.01
2016-07-19T11:27:42.451Z,25
2016-07-19T11:28:42.438Z,25.05
2016-07-19T11:29:42.455Z,25.02
2016-07-19T11:30:42.474Z,25.05
2016-07-19T11:31:42.490Z,25.05
2016-07-19T11:32:42.510Z,25.05
2016-07-19T11:33:42.511Z,25.08
2016-07-19T11:34:42.513Z,25.14
2016-07-19T11:35:42.521Z,25.2
2016-07-19T11:36:42.547Z,25.17
2016-07-19T11:37:42.560Z,25.2
2016-07-19T11:38:42.576Z,25.14
2016-07-19T11:39:42.554Z,25.15
2016-07-19T11:40:42.588Z,25.14
2016-07-19T11:41:42.596Z,25.14
2016-07-19T11:42:42.571Z,25.08
2016-07-19T11:43:42.598Z,25.08
2016-07-19T11:44:42.620Z,25.09
2016-07-19T11:45:42.601Z,25.14
2016-07-19T11:46:42.621Z,25.17
2016-07-19T11:47:42.606Z,25.15
2016-07-19T11:48:42.623Z,25.17
2016-07-19T11:49:42.648Z,25.19
2016-07-19T11:50:42.639Z,25.19
2016-07-19T11:51:42.671Z,25.27
2016-07-19T11:52:42.680Z,25.19
2016-07-19T11:53:42.687Z,25.26
2016-07-19T11:54:42.721Z,25.3
2016-07-19T11:55:42.698Z,25.34
2016-07-19T11:56:42.703Z,25.39
2016-07-19T11:57:42.705Z,25.24
2016-07-19T11:58:42.728Z,25.37
2016-07-19T11:59:42.748Z,25.34
2016-07-19T12:00:42.739Z,25.33
2016-07-19T12:01:42.733Z,25.34
2016-07-19T12:02:42.776Z,25.39
2016-07-19T12:03:42.787Z,25.41
2016-07-19T12:04:42.799Z,25.37
2016-07-19T12:05:42.807Z,25.33
2016-07-19T12:06:42.812Z,25.42
2016-07-19T12:07:42.802Z,25.38
2016-07-19T12:08:42.797Z,25.41
2016-07-19T12:09:42.832Z,25.45
2016-07-19T12:10:42.874Z,25.44
2016-07-19T12:11:42.879Z,25.44
2016-07-19T12:12:42.876Z,25.51
2016-07-19T12:13:42.857Z,25.48
2016-07-19T12:14:42.893Z,25.47
2016-07-19T12:15:42.861Z,25.48
2016-07-19T12:16:42.901Z,25.57
2016-07-19T12:17:42.905Z,25.56
2016-07-19T12:18:42.912Z,25.59
2016-07-19T12:19:42.922Z,25.49
2016-07-19T12:20:42.939Z,25.52
2016-07-19T12:21:42.940Z,25.57
2016-07-19T12:22:43.656Z,25.54
2016-07-19T12:23:42.976Z,25.49
2016-07-19T12:24:42.990Z,25.57
2016-07-19T12:25:43.009Z,25.56
2016-07-19T12:26:42.982Z,25.49
2016-07-19T12:27:43.023Z,25.54
2016-07-19T12:28:43.015Z,25.52
2016-07-19T12:29:43.032Z,25.51
2016-07-19T12:30:43.044Z,25.52
2016-07-19T12:31:43.053Z,25.52
2016-07-19T12:32:43.060Z,25.51
2016-07-19T12:33:43.050Z,25.54
2016-07-19T12:34:43.074Z,25.56
2016-07-19T12:35:43.054Z,25.54
2016-07-19T12:36:43.104Z,25.56
2016-07-19T12:37:43.096Z,25.54
2016-07-19T12:38:43.118Z,25.56
2016-07-19T12:39:43.140Z,25.54
2016-07-19T12:40:43.136Z,25.62
2016-07-19T12:41:43.140Z,25.66
2016-07-19T12:42:43.164Z,25.56
2016-07-19T12:43:43.177Z,25.52
2016-07-19T12:44:43.189Z,25.62
2016-07-19T12:45:43.188Z,25.69
2016-07-19T12:46:43.913Z,25.54
2016-07-19T12:47:43.213Z,25.52
2016-07-19T12:48:43.201Z,25.54
2016-07-19T12:49:43.233Z,25.64
2016-07-19T12:50:43.204Z,25.69
2016-07-19T12:51:43.237Z,25.66
2016-07-19T12:52:43.259Z,25.62
2016-07-19T12:53:43.251Z,25.62
2016-07-19T12:54:43.268Z,25.69
2016-07-19T12:55:43.256Z,25.48
2016-07-19T12:56:43.273Z,25.56